Wayside, West Virginia
Current Conditions -  °F | °C
As of 9:35 AM on Wednesday 22 Oct 2014 (Local Time) from KLWB Reporting Station
Overcast Overcast  
Wind Chill: 46°   Ceiling: 2300
Heat Index: 47°   Visibility: 10mi
Dew Point: 39°   Wind: 5mph
Humidity: 72%   Direction: 320°NW
Pressure: 30.1"   Gusts: NA
Location:  37.59°N, 80.69°W
Report Text: KLWB 221335Z AUTO 32004KT 10SM OVC023 09/04 A3010 RMK AO2 T00860039
Loading
Personal Weather Stations






























Interactive Weather Map
Tropical Storm Tracking
New forecast layout! Learn more

10-Day Weather Forecast

Advertisements
Track Severe Weather on mobile